sensor_id;sensor_type;location;lat;lon;timestamp;P1;durP1;ratioP1;P2;durP2;ratioP2
22711;SDS011;11523;50.390;8.072;2023-05-29T02:30:08;5.70;;;5.13;;
22711;SDS011;11523;50.390;8.072;2023-05-29T02:32:41;8.35;;;5.10;;
22711;SDS011;11523;50.390;8.072;2023-05-29T02:35:07;7.63;;;5.68;;
22711;SDS011;11523;50.390;8.072;2023-05-29T02:37:33;6.25;;;5.05;;
22711;SDS011;11523;50.390;8.072;2023-05-29T02:39:59;6.55;;;4.80;;
22711;SDS011;11523;50.390;8.072;2023-05-29T02:42:25;6.82;;;5.18;;
22711;SDS011;11523;50.390;8.072;2023-05-29T02:44:51;8.70;;;4.97;;
22711;SDS011;11523;50.390;8.072;2023-05-29T02:47:17;6.95;;;5.20;;
22711;SDS011;11523;50.390;8.072;2023-05-29T02:49:43;9.43;;;5.45;;
22711;SDS011;11523;50.390;8.072;2023-05-29T02:52:09;11.25;;;5.30;;
22711;SDS011;11523;50.390;8.072;2023-05-29T02:54:35;6.95;;;5.05;;
22711;SDS011;11523;50.390;8.072;2023-05-29T02:57:01;7.55;;;5.30;;
22711;SDS011;11523;50.390;8.072;2023-05-29T02:59:27;7.00;;;5.30;;
22711;SDS011;11523;50.390;8.072;2023-05-29T03:01:53;6.95;;;5.28;;
22711;SDS011;11523;50.390;8.072;2023-05-29T03:04:19;7.25;;;5.25;;
22711;SDS011;11523;50.390;8.072;2023-05-29T03:06:45;6.75;;;5.35;;
22711;SDS011;11523;50.390;8.072;2023-05-29T03:09:12;6.90;;;5.55;;
22711;SDS011;11523;50.390;8.072;2023-05-29T03:11:38;8.63;;;5.22;;
22711;SDS011;11523;50.390;8.072;2023-05-29T03:14:05;9.18;;;5.65;;
22711;SDS011;11523;50.390;8.072;2023-05-29T03:16:31;8.95;;;5.68;;
22711;SDS011;11523;50.390;8.072;2023-05-29T03:18:57;10.98;;;5.43;;
22711;SDS011;11523;50.390;8.072;2023-05-29T03:21:23;9.75;;;5.35;;
22711;SDS011;11523;50.390;8.072;2023-05-29T03:23:49;7.88;;;4.90;;
22711;SDS011;11523;50.390;8.072;2023-05-29T03:26:16;5.75;;;4.85;;
22711;SDS011;11523;50.390;8.072;2023-05-29T03:28:42;8.38;;;5.40;;
22711;SDS011;11523;50.390;8.072;2023-05-29T03:31:07;6.88;;;5.07;;
22711;SDS011;11523;50.390;8.072;2023-05-29T03:33:35;6.55;;;4.85;;
22711;SDS011;11523;50.390;8.072;2023-05-29T03:36:01;10.30;;;5.03;;
22711;SDS011;11523;50.390;8.072;2023-05-29T03:38:27;7.75;;;5.50;;
22711;SDS011;11523;50.390;8.072;2023-05-29T03:40:53;9.23;;;4.55;;
22711;SDS011;11523;50.390;8.072;2023-05-29T03:43:19;9.32;;;4.65;;
22711;SDS011;11523;50.390;8.072;2023-05-29T03:45:45;6.80;;;4.53;;
22711;SDS011;11523;50.390;8.072;2023-05-29T03:48:11;7.07;;;4.72;;
22711;SDS011;11523;50.390;8.072;2023-05-29T03:50:37;7.05;;;4.72;;
22711;SDS011;11523;50.390;8.072;2023-05-29T03:53:03;5.90;;;4.60;;
22711;SDS011;11523;50.390;8.072;2023-05-29T03:55:29;5.88;;;4.80;;
22711;SDS011;11523;50.390;8.072;2023-05-29T03:57:55;7.75;;;4.75;;
22711;SDS011;11523;50.390;8.072;2023-05-29T04:00:21;5.43;;;4.22;;
22711;SDS011;11523;50.390;8.072;2023-05-29T04:02:47;6.55;;;4.70;;
22711;SDS011;11523;50.390;8.072;2023-05-29T04:05:12;8.98;;;4.95;;
22711;SDS011;11523;50.390;8.072;2023-05-29T04:07:39;5.72;;;4.32;;
22711;SDS011;11523;50.390;8.072;2023-05-29T04:10:05;6.57;;;4.35;;
22711;SDS011;11523;50.390;8.072;2023-05-29T04:12:32;9.50;;;4.57;;
22711;SDS011;11523;50.390;8.072;2023-05-29T04:14:58;8.32;;;5.40;;
22711;SDS011;11523;50.390;8.072;2023-05-29T04:17:24;9.95;;;4.93;;
22711;SDS011;11523;50.390;8.072;2023-05-29T04:19:50;8.98;;;4.82;;
22711;SDS011;11523;50.390;8.072;2023-05-29T04:22:16;7.97;;;5.18;;
22711;SDS011;11523;50.390;8.072;2023-05-29T04:24:42;6.15;;;4.90;;
22711;SDS011;11523;50.390;8.072;2023-05-29T04:27:08;7.93;;;4.63;;
22711;SDS011;11523;50.390;8.072;2023-05-29T04:29:38;7.63;;;4.72;;
22711;SDS011;11523;50.390;8.072;2023-05-29T04:32:05;6.50;;;4.30;;
22711;SDS011;11523;50.390;8.072;2023-05-29T04:34:31;5.82;;;4.43;;
22711;SDS011;11523;50.390;8.072;2023-05-29T04:36:57;6.40;;;4.80;;
22711;SDS011;11523;50.390;8.072;2023-05-29T04:39:23;10.60;;;5.07;;
22711;SDS011;11523;50.390;8.072;2023-05-29T04:41:50;8.00;;;4.57;;
22711;SDS011;11523;50.390;8.072;2023-05-29T04:44:16;9.52;;;4.85;;
22711;SDS011;11523;50.390;8.072;2023-05-29T04:46:43;8.48;;;4.85;;
22711;SDS011;11523;50.390;8.072;2023-05-29T04:49:09;6.82;;;4.50;;
22711;SDS011;11523;50.390;8.072;2023-05-29T04:51:35;8.23;;;4.88;;
22711;SDS011;11523;50.390;8.072;2023-05-29T04:54:01;9.93;;;5.00;;
22711;SDS011;11523;50.390;8.072;2023-05-29T04:56:27;6.25;;;5.30;;
22711;SDS011;11523;50.390;8.072;2023-05-29T04:58:53;9.00;;;5.15;;
22711;SDS011;11523;50.390;8.072;2023-05-29T05:01:19;7.88;;;5.13;;
22711;SDS011;11523;50.390;8.072;2023-05-29T05:03:45;7.15;;;4.60;;
22711;SDS011;11523;50.390;8.072;2023-05-29T05:06:11;6.75;;;5.43;;
22711;SDS011;11523;50.390;8.072;2023-05-29T05:08:37;8.27;;;5.05;;
22711;SDS011;11523;50.390;8.072;2023-05-29T05:11:04;6.10;;;5.00;;
22711;SDS011;11523;50.390;8.072;2023-05-29T05:13:31;6.45;;;4.63;;
22711;SDS011;11523;50.390;8.072;2023-05-29T05:15:57;5.05;;;4.30;;
22711;SDS011;11523;50.390;8.072;2023-05-29T05:18:23;6.05;;;4.85;;
22711;SDS011;11523;50.390;8.072;2023-05-29T05:20:49;7.10;;;4.90;;
22711;SDS011;11523;50.390;8.072;2023-05-29T05:23:15;6.82;;;4.72;;
22711;SDS011;11523;50.390;8.072;2023-05-29T05:25:41;10.35;;;5.60;;
22711;SDS011;11523;50.390;8.072;2023-05-29T05:28:08;6.05;;;4.72;;
22711;SDS011;11523;50.390;8.072;2023-05-29T05:30:34;7.85;;;4.85;;
22711;SDS011;11523;50.390;8.072;2023-05-29T05:33:00;5.80;;;4.97;;
22711;SDS011;11523;50.390;8.072;2023-05-29T05:35:27;9.25;;;5.45;;
22711;SDS011;11523;50.390;8.072;2023-05-29T05:37:53;8.50;;;4.63;;
22711;SDS011;11523;50.390;8.072;2023-05-29T05:40:22;6.63;;;4.95;;
22711;SDS011;11523;50.390;8.072;2023-05-29T05:42:48;6.82;;;4.78;;
22711;SDS011;11523;50.390;8.072;2023-05-29T05:45:14;7.68;;;5.30;;
22711;SDS011;11523;50.390;8.072;2023-05-29T05:47:40;7.47;;;4.68;;
22711;SDS011;11523;50.390;8.072;2023-05-29T05:50:06;7.82;;;4.82;;
22711;SDS011;11523;50.390;8.072;2023-05-29T05:52:32;11.70;;;5.10;;
22711;SDS011;11523;50.390;8.072;2023-05-29T05:54:58;7.20;;;4.80;;
22711;SDS011;11523;50.390;8.072;2023-05-29T05:57:24;6.57;;;4.80;;
22711;SDS011;11523;50.390;8.072;2023-05-29T05:59:51;8.45;;;5.53;;
22711;SDS011;11523;50.390;8.072;2023-05-29T06:02:17;7.85;;;5.03;;
22711;SDS011;11523;50.390;8.072;2023-05-29T06:04:43;8.43;;;4.55;;
22711;SDS011;11523;50.390;8.072;2023-05-29T06:07:09;6.32;;;4.60;;
22711;SDS011;11523;50.390;8.072;2023-05-29T06:09:36;9.32;;;4.88;;
22711;SDS011;11523;50.390;8.072;2023-05-29T06:12:02;11.18;;;5.18;;
22711;SDS011;11523;50.390;8.072;2023-05-29T06:14:28;7.50;;;5.28;;
22711;SDS011;11523;50.390;8.072;2023-05-29T06:16:54;7.18;;;5.05;;
22711;SDS011;11523;50.390;8.072;2023-05-29T06:19:21;7.63;;;4.97;;
22711;SDS011;11523;50.390;8.072;2023-05-29T06:21:47;7.07;;;4.65;;
22711;SDS011;11523;50.390;8.072;2023-05-29T06:24:13;8.85;;;6.07;;
22711;SDS011;11523;50.390;8.072;2023-05-29T06:26:39;9.45;;;5.88;;
22711;SDS011;11523;50.390;8.072;2023-05-29T06:29:05;10.10;;;5.15;;
22711;SDS011;11523;50.390;8.072;2023-05-29T06:31:31;7.28;;;4.88;;
22711;SDS011;11523;50.390;8.072;2023-05-29T06:33:58;8.82;;;4.78;;
22711;SDS011;11523;50.390;8.072;2023-05-29T06:36:24;6.63;;;4.70;;
22711;SDS011;11523;50.390;8.072;2023-05-29T06:38:50;8.63;;;4.55;;
22711;SDS011;11523;50.390;8.072;2023-05-29T06:41:17;9.50;;;5.35;;
22711;SDS011;11523;50.390;8.072;2023-05-29T06:43:43;6.07;;;4.57;;
22711;SDS011;11523;50.390;8.072;2023-05-29T06:46:09;10.27;;;5.40;;
22711;SDS011;11523;50.390;8.072;2023-05-29T06:48:35;6.80;;;5.25;;
22711;SDS011;11523;50.390;8.072;2023-05-29T06:51:02;7.63;;;5.32;;
22711;SDS011;11523;50.390;8.072;2023-05-29T06:53:36;7.47;;;4.97;;
22711;SDS011;11523;50.390;8.072;2023-05-29T06:56:03;8.45;;;4.85;;
22711;SDS011;11523;50.390;8.072;2023-05-29T06:58:29;9.00;;;4.85;;
22711;SDS011;11523;50.390;8.072;2023-05-29T07:00:55;10.15;;;5.20;;
22711;SDS011;11523;50.390;8.072;2023-05-29T07:03:22;11.57;;;5.55;;
22711;SDS011;11523;50.390;8.072;2023-05-29T07:05:48;7.95;;;5.32;;
22711;SDS011;11523;50.390;8.072;2023-05-29T07:08:13;7.05;;;4.95;;
22711;SDS011;11523;50.390;8.072;2023-05-29T07:10:39;7.18;;;4.80;;
22711;SDS011;11523;50.390;8.072;2023-05-29T07:13:05;8.27;;;5.13;;
22711;SDS011;11523;50.390;8.072;2023-05-29T07:15:32;11.00;;;4.97;;
22711;SDS011;11523;50.390;8.072;2023-05-29T07:17:57;9.65;;;5.30;;
22711;SDS011;11523;50.390;8.072;2023-05-29T07:20:23;9.50;;;4.72;;
22711;SDS011;11523;50.390;8.072;2023-05-29T07:22:49;11.43;;;5.35;;
22711;SDS011;11523;50.390;8.072;2023-05-29T07:25:15;12.50;;;5.38;;
22711;SDS011;11523;50.390;8.072;2023-05-29T07:27:41;10.27;;;4.95;;
22711;SDS011;11523;50.390;8.072;2023-05-29T07:30:07;8.07;;;5.00;;
22711;SDS011;11523;50.390;8.072;2023-05-29T07:32:33;6.72;;;4.80;;
22711;SDS011;11523;50.390;8.072;2023-05-29T07:34:59;8.60;;;4.97;;
22711;SDS011;11523;50.390;8.072;2023-05-29T07:37:25;9.57;;;5.25;;
22711;SDS011;11523;50.390;8.072;2023-05-29T07:39:51;7.47;;;4.90;;
22711;SDS011;11523;50.390;8.072;2023-05-29T07:42:17;8.30;;;4.90;;
22711;SDS011;11523;50.390;8.072;2023-05-29T07:44:49;8.18;;;4.85;;
22711;SDS011;11523;50.390;8.072;2023-05-29T07:47:22;9.43;;;4.60;;
22711;SDS011;11523;50.390;8.072;2023-05-29T07:49:48;8.43;;;5.18;;
22711;SDS011;11523;50.390;8.072;2023-05-29T07:52:15;10.10;;;4.63;;
22711;SDS011;11523;50.390;8.072;2023-05-29T07:54:41;9.45;;;4.75;;
22711;SDS011;11523;50.390;8.072;2023-05-29T07:57:07;6.38;;;4.80;;
22711;SDS011;11523;50.390;8.072;2023-05-29T07:59:35;6.93;;;4.70;;
22711;SDS011;11523;50.390;8.072;2023-05-29T08:02:01;8.02;;;4.45;;
22711;SDS011;11523;50.390;8.072;2023-05-29T08:04:33;7.43;;;5.10;;
22711;SDS011;11523;50.390;8.072;2023-05-29T08:07:00;10.35;;;4.97;;
22711;SDS011;11523;50.390;8.072;2023-05-29T08:09:28;9.68;;;4.93;;
22711;SDS011;11523;50.390;8.072;2023-05-29T08:11:54;12.75;;;5.32;;
22711;SDS011;11523;50.390;8.072;2023-05-29T08:14:20;8.95;;;5.28;;
22711;SDS011;11523;50.390;8.072;2023-05-29T08:16:46;8.35;;;4.70;;
22711;SDS011;11523;50.390;8.072;2023-05-29T08:19:19;8.18;;;4.55;;
22711;SDS011;11523;50.390;8.072;2023-05-29T08:21:45;8.75;;;5.10;;
22711;SDS011;11523;50.390;8.072;2023-05-29T08:24:11;8.75;;;4.60;;
22711;SDS011;11523;50.390;8.072;2023-05-29T08:26:37;8.95;;;4.50;;
22711;SDS011;11523;50.390;8.072;2023-05-29T08:29:03;8.23;;;4.75;;
22711;SDS011;11523;50.390;8.072;2023-05-29T08:31:35;8.82;;;4.63;;
22711;SDS011;11523;50.390;8.072;2023-05-29T08:34:07;13.57;;;4.65;;
22711;SDS011;11523;50.390;8.072;2023-05-29T08:36:35;13.57;;;4.65;;
22711;SDS011;11523;50.390;8.072;2023-05-29T08:39:01;6.50;;;4.30;;
22711;SDS011;11523;50.390;8.072;2023-05-29T08:41:40;8.35;;;4.43;;
22711;SDS011;11523;50.390;8.072;2023-05-29T08:44:07;6.03;;;4.32;;
22711;SDS011;11523;50.390;8.072;2023-05-29T08:46:33;10.63;;;5.07;;
22711;SDS011;11523;50.390;8.072;2023-05-29T08:48:59;6.50;;;4.65;;
22711;SDS011;11523;50.390;8.072;2023-05-29T08:51:27;9.20;;;4.95;;
22711;SDS011;11523;50.390;8.072;2023-05-29T08:53:56;11.35;;;4.70;;
22711;SDS011;11523;50.390;8.072;2023-05-29T08:56:23;7.60;;;4.53;;
22711;SDS011;11523;50.390;8.072;2023-05-29T08:58:49;9.80;;;4.60;;
22711;SDS011;11523;50.390;8.072;2023-05-29T09:01:16;9.40;;;4.18;;
22711;SDS011;11523;50.390;8.072;2023-05-29T09:03:42;8.82;;;4.10;;
22711;SDS011;11523;50.390;8.072;2023-05-29T09:06:08;4.97;;;3.90;;
22711;SDS011;11523;50.390;8.072;2023-05-29T09:08:37;6.90;;;4.45;;
22711;SDS011;11523;50.390;8.072;2023-05-29T09:11:03;7.43;;;3.97;;
22711;SDS011;11523;50.390;8.072;2023-05-29T09:13:36;5.50;;;4.05;;
22711;SDS011;11523;50.390;8.072;2023-05-29T09:16:02;7.13;;;4.50;;
22711;SDS011;11523;50.390;8.072;2023-05-29T09:18:31;6.10;;;4.45;;
22711;SDS011;11523;50.390;8.072;2023-05-29T09:20:58;8.80;;;4.00;;
22711;SDS011;11523;50.390;8.072;2023-05-29T09:23:27;8.05;;;4.10;;
22711;SDS011;11523;50.390;8.072;2023-05-29T09:25:53;6.22;;;4.15;;
22711;SDS011;11523;50.390;8.072;2023-05-29T09:28:20;6.78;;;4.30;;
22711;SDS011;11523;50.390;8.072;2023-05-29T09:30:48;7.18;;;4.38;;
22711;SDS011;11523;50.390;8.072;2023-05-29T09:33:14;6.75;;;3.95;;
22711;SDS011;11523;50.390;8.072;2023-05-29T09:35:45;5.03;;;3.75;;
22711;SDS011;11523;50.390;8.072;2023-05-29T09:38:12;8.15;;;4.72;;
22711;SDS011;11523;50.390;8.072;2023-05-29T09:40:39;7.85;;;4.35;;
22711;SDS011;11523;50.390;8.072;2023-05-29T09:43:17;6.85;;;3.88;;
22711;SDS011;11523;50.390;8.072;2023-05-29T09:45:45;6.65;;;4.20;;
22711;SDS011;11523;50.390;8.072;2023-05-29T09:48:15;6.60;;;3.85;;
22711;SDS011;11523;50.390;8.072;2023-05-29T09:50:41;7.57;;;4.72;;
22711;SDS011;11523;50.390;8.072;2023-05-29T09:53:19;6.43;;;4.30;;
22711;SDS011;11523;50.390;8.072;2023-05-29T09:55:46;5.03;;;3.50;;
22711;SDS011;11523;50.390;8.072;2023-05-29T09:58:13;5.15;;;3.90;;
22711;SDS011;11523;50.390;8.072;2023-05-29T10:00:40;6.30;;;4.13;;
22711;SDS011;11523;50.390;8.072;2023-05-29T10:03:07;8.55;;;3.83;;
22711;SDS011;11523;50.390;8.072;2023-05-29T10:05:33;7.47;;;3.90;;
22711;SDS011;11523;50.390;8.072;2023-05-29T10:07:59;5.28;;;3.80;;
22711;SDS011;11523;50.390;8.072;2023-05-29T10:10:27;7.50;;;3.92;;
22711;SDS011;11523;50.390;8.072;2023-05-29T10:12:53;6.18;;;3.88;;
22711;SDS011;11523;50.390;8.072;2023-05-29T10:15:19;6.72;;;3.80;;
22711;SDS011;11523;50.390;8.072;2023-05-29T10:20:34;6.95;;;3.83;;
22711;SDS011;11523;50.390;8.072;2023-05-29T10:23:01;7.35;;;3.80;;
22711;SDS011;11523;50.390;8.072;2023-05-29T10:25:29;5.97;;;3.80;;
22711;SDS011;11523;50.390;8.072;2023-05-29T10:27:55;6.13;;;3.75;;
22711;SDS011;11523;50.390;8.072;2023-05-29T10:38:14;5.47;;;3.83;;
22711;SDS011;11523;50.390;8.072;2023-05-29T10:40:42;8.63;;;3.67;;
22711;SDS011;11523;50.390;8.072;2023-05-29T10:43:08;5.38;;;3.70;;
22711;SDS011;11523;50.390;8.072;2023-05-29T10:50:41;4.93;;;3.50;;
22711;SDS011;11523;50.390;8.072;2023-05-29T10:53:10;5.20;;;3.85;;
22711;SDS011;11523;50.390;8.072;2023-05-29T10:55:40;6.50;;;3.67;;
22711;SDS011;11523;50.390;8.072;2023-05-29T10:58:13;5.28;;;3.50;;
22711;SDS011;11523;50.390;8.072;2023-05-29T11:00:39;6.55;;;3.80;;
22711;SDS011;11523;50.390;8.072;2023-05-29T11:03:11;6.28;;;3.70;;
22711;SDS011;11523;50.390;8.072;2023-05-29T11:08:28;9.18;;;3.97;;
22711;SDS011;11523;50.390;8.072;2023-05-29T11:10:55;5.32;;;3.65;;
22711;SDS011;11523;50.390;8.072;2023-05-29T11:13:22;5.40;;;3.90;;
22711;SDS011;11523;50.390;8.072;2023-05-29T11:16:03;4.25;;;3.42;;
22711;SDS011;11523;50.390;8.072;2023-05-29T11:18:30;7.32;;;3.90;;
22711;SDS011;11523;50.390;8.072;2023-05-29T11:21:00;6.25;;;3.70;;
22711;SDS011;11523;50.390;8.072;2023-05-29T11:25:56;5.97;;;3.58;;
22711;SDS011;11523;50.390;8.072;2023-05-29T11:28:22;4.35;;;3.67;;
22711;SDS011;11523;50.390;8.072;2023-05-29T11:30:48;6.85;;;3.65;;
22711;SDS011;11523;50.390;8.072;2023-05-29T11:33:20;6.50;;;3.35;;
22711;SDS011;11523;50.390;8.072;2023-05-29T11:35:49;5.15;;;3.47;;
22711;SDS011;11523;50.390;8.072;2023-05-29T11:38:16;6.53;;;3.80;;
22711;SDS011;11523;50.390;8.072;2023-05-29T11:40:42;5.47;;;3.72;;
22711;SDS011;11523;50.390;8.072;2023-05-29T11:43:08;7.97;;;3.90;;
22711;SDS011;11523;50.390;8.072;2023-05-29T11:45:34;5.03;;;3.63;;
22711;SDS011;11523;50.390;8.072;2023-05-29T11:48:01;7.55;;;4.18;;
22711;SDS011;11523;50.390;8.072;2023-05-29T11:50:28;4.95;;;3.70;;
22711;SDS011;11523;50.390;8.072;2023-05-29T11:52:55;7.20;;;3.72;;
22711;SDS011;11523;50.390;8.072;2023-05-29T11:55:21;6.95;;;3.70;;
22711;SDS011;11523;50.390;8.072;2023-05-29T11:57:48;6.60;;;3.45;;
22711;SDS011;11523;50.390;8.072;2023-05-29T12:00:15;4.72;;;3.63;;
22711;SDS011;11523;50.390;8.072;2023-05-29T12:02:41;4.88;;;3.85;;
22711;SDS011;11523;50.390;8.072;2023-05-29T12:05:08;6.78;;;3.72;;
22711;SDS011;11523;50.390;8.072;2023-05-29T12:07:37;5.05;;;3.42;;
22711;SDS011;11523;50.390;8.072;2023-05-29T12:10:08;5.38;;;3.97;;
22711;SDS011;11523;50.390;8.072;2023-05-29T12:12:34;5.80;;;3.83;;
22711;SDS011;11523;50.390;8.072;2023-05-29T12:15:00;5.90;;;3.65;;
22711;SDS011;11523;50.390;8.072;2023-05-29T12:17:30;6.10;;;3.85;;
22711;SDS011;11523;50.390;8.072;2023-05-29T12:19:56;4.88;;;3.70;;
22711;SDS011;11523;50.390;8.072;2023-05-29T12:22:35;6.60;;;3.63;;
22711;SDS011;11523;50.390;8.072;2023-05-29T12:25:11;5.45;;;3.63;;
22711;SDS011;11523;50.390;8.072;2023-05-29T12:27:41;5.65;;;3.63;;
22711;SDS011;11523;50.390;8.072;2023-05-29T12:30:11;5.85;;;3.28;;
22711;SDS011;11523;50.390;8.072;2023-05-29T12:32:40;5.18;;;3.40;;
22711;SDS011;11523;50.390;8.072;2023-05-29T12:35:17;6.88;;;3.50;;
22711;SDS011;11523;50.390;8.072;2023-05-29T12:37:44;5.30;;;3.60;;
22711;SDS011;11523;50.390;8.072;2023-05-29T12:40:17;5.32;;;3.60;;
22711;SDS011;11523;50.390;8.072;2023-05-29T12:42:43;7.60;;;4.10;;
22711;SDS011;11523;50.390;8.072;2023-05-29T12:45:09;4.40;;;3.67;;
22711;SDS011;11523;50.390;8.072;2023-05-29T12:47:35;4.38;;;3.40;;
22711;SDS011;11523;50.390;8.072;2023-05-29T12:50:20;6.53;;;3.47;;
22711;SDS011;11523;50.390;8.072;2023-05-29T12:52:52;5.95;;;4.20;;
22711;SDS011;11523;50.390;8.072;2023-05-29T12:55:19;6.18;;;3.40;;
22711;SDS011;11523;50.390;8.072;2023-05-29T12:57:45;4.63;;;3.67;;
22711;SDS011;11523;50.390;8.072;2023-05-29T13:00:11;6.80;;;4.03;;
22711;SDS011;11523;50.390;8.072;2023-05-29T13:02:37;4.53;;;3.92;;
22711;SDS011;11523;50.390;8.072;2023-05-29T13:05:04;4.18;;;3.40;;
22711;SDS011;11523;50.390;8.072;2023-05-29T13:07:30;4.40;;;3.72;;
22711;SDS011;11523;50.390;8.072;2023-05-29T13:09:56;6.65;;;3.42;;
22711;SDS011;11523;50.390;8.072;2023-05-29T13:12:22;6.20;;;3.80;;
22711;SDS011;11523;50.390;8.072;2023-05-29T13:14:48;6.68;;;4.07;;
22711;SDS011;11523;50.390;8.072;2023-05-29T13:17:15;4.78;;;3.72;;
22711;SDS011;11523;50.390;8.072;2023-05-29T13:19:41;4.90;;;3.53;;
22711;SDS011;11523;50.390;8.072;2023-05-29T13:22:07;4.38;;;3.78;;
22711;SDS011;11523;50.390;8.072;2023-05-29T13:24:33;6.13;;;3.78;;
22711;SDS011;11523;50.390;8.072;2023-05-29T13:26:59;6.15;;;3.78;;
22711;SDS011;11523;50.390;8.072;2023-05-29T13:29:25;5.57;;;3.83;;
22711;SDS011;11523;50.390;8.072;2023-05-29T13:31:51;5.25;;;3.50;;
22711;SDS011;11523;50.390;8.072;2023-05-29T13:34:17;5.13;;;3.83;;
22711;SDS011;11523;50.390;8.072;2023-05-29T13:36:43;6.00;;;3.75;;
22711;SDS011;11523;50.390;8.072;2023-05-29T13:39:09;4.15;;;3.75;;
22711;SDS011;11523;50.390;8.072;2023-05-29T13:41:35;6.15;;;3.92;;
22711;SDS011;11523;50.390;8.072;2023-05-29T13:44:01;4.45;;;3.55;;
22711;SDS011;11523;50.390;8.072;2023-05-29T13:46:27;5.95;;;3.97;;
22711;SDS011;11523;50.390;8.072;2023-05-29T13:48:53;4.90;;;3.67;;
22711;SDS011;11523;50.390;8.072;2023-05-29T13:51:19;5.13;;;3.63;;
22711;SDS011;11523;50.390;8.072;2023-05-29T13:53:45;5.97;;;3.67;;
22711;SDS011;11523;50.390;8.072;2023-05-29T13:56:11;6.40;;;3.95;;
22711;SDS011;11523;50.390;8.072;2023-05-29T13:58:37;5.18;;;3.13;;
22711;SDS011;11523;50.390;8.072;2023-05-29T14:01:03;5.43;;;3.78;;
22711;SDS011;11523;50.390;8.072;2023-05-29T14:03:29;5.75;;;3.45;;
22711;SDS011;11523;50.390;8.072;2023-05-29T14:05:56;4.88;;;3.78;;
22711;SDS011;11523;50.390;8.072;2023-05-29T14:08:22;3.88;;;3.53;;
22711;SDS011;11523;50.390;8.072;2023-05-29T14:10:48;5.30;;;3.78;;
22711;SDS011;11523;50.390;8.072;2023-05-29T14:13:15;6.30;;;4.03;;
22711;SDS011;11523;50.390;8.072;2023-05-29T14:15:41;4.95;;;3.65;;
22711;SDS011;11523;50.390;8.072;2023-05-29T14:18:07;5.55;;;3.80;;
22711;SDS011;11523;50.390;8.072;2023-05-29T14:20:33;5.00;;;3.72;;
22711;SDS011;11523;50.390;8.072;2023-05-29T14:22:59;5.65;;;3.70;;
22711;SDS011;11523;50.390;8.072;2023-05-29T14:25:25;6.32;;;3.70;;
22711;SDS011;11523;50.390;8.072;2023-05-29T14:27:57;6.72;;;3.80;;
22711;SDS011;11523;50.390;8.072;2023-05-29T14:30:23;5.05;;;3.83;;
22711;SDS011;11523;50.390;8.072;2023-05-29T14:32:49;8.18;;;3.92;;
22711;SDS011;11523;50.390;8.072;2023-05-29T14:35:15;6.18;;;3.83;;
22711;SDS011;11523;50.390;8.072;2023-05-29T14:37:41;7.22;;;3.78;;
22711;SDS011;11523;50.390;8.072;2023-05-29T14:40:07;6.00;;;4.00;;
22711;SDS011;11523;50.390;8.072;2023-05-29T14:42:34;5.28;;;3.95;;
22711;SDS011;11523;50.390;8.072;2023-05-29T14:45:00;6.20;;;3.35;;
22711;SDS011;11523;50.390;8.072;2023-05-29T14:47:33;4.45;;;3.30;;
22711;SDS011;11523;50.390;8.072;2023-05-29T14:49:59;5.18;;;3.72;;
22711;SDS011;11523;50.390;8.072;2023-05-29T14:52:25;7.65;;;4.03;;
22711;SDS011;11523;50.390;8.072;2023-05-29T14:54:51;5.53;;;3.97;;
22711;SDS011;11523;50.390;8.072;2023-05-29T14:57:16;5.63;;;3.55;;
22711;SDS011;11523;50.390;8.072;2023-05-29T14:59:42;5.80;;;3.65;;
22711;SDS011;11523;50.390;8.072;2023-05-29T15:02:08;5.15;;;3.45;;
22711;SDS011;11523;50.390;8.072;2023-05-29T15:04:34;5.60;;;3.58;;
22711;SDS011;11523;50.390;8.072;2023-05-29T15:07:00;4.85;;;3.80;;
22711;SDS011;11523;50.390;8.072;2023-05-29T15:09:27;4.50;;;3.35;;
22711;SDS011;11523;50.390;8.072;2023-05-29T15:11:53;6.20;;;3.70;;
22711;SDS011;11523;50.390;8.072;2023-05-29T15:14:19;6.00;;;3.50;;
22711;SDS011;11523;50.390;8.072;2023-05-29T15:16:45;4.78;;;3.80;;
22711;SDS011;11523;50.390;8.072;2023-05-29T15:19:11;4.78;;;3.67;;
22711;SDS011;11523;50.390;8.072;2023-05-29T15:21:37;5.75;;;4.03;;
22711;SDS011;11523;50.390;8.072;2023-05-29T15:24:03;4.85;;;3.50;;
22711;SDS011;11523;50.390;8.072;2023-05-29T15:26:29;8.18;;;3.58;;
22711;SDS011;11523;50.390;8.072;2023-05-29T15:28:55;6.25;;;3.47;;
22711;SDS011;11523;50.390;8.072;2023-05-29T15:31:21;4.05;;;3.65;;
22711;SDS011;11523;50.390;8.072;2023-05-29T15:33:50;5.15;;;3.58;;
22711;SDS011;11523;50.390;8.072;2023-05-29T15:36:16;5.65;;;3.55;;
22711;SDS011;11523;50.390;8.072;2023-05-29T15:38:44;4.13;;;3.30;;
22711;SDS011;11523;50.390;8.072;2023-05-29T15:41:09;5.88;;;3.22;;
22711;SDS011;11523;50.390;8.072;2023-05-29T15:43:35;7.78;;;3.83;;
22711;SDS011;11523;50.390;8.072;2023-05-29T15:46:01;4.10;;;3.33;;
22711;SDS011;11523;50.390;8.072;2023-05-29T15:48:28;5.72;;;3.40;;
22711;SDS011;11523;50.390;8.072;2023-05-29T15:50:54;4.97;;;3.38;;
22711;SDS011;11523;50.390;8.072;2023-05-29T15:53:20;4.50;;;3.28;;
22711;SDS011;11523;50.390;8.072;2023-05-29T15:55:46;5.05;;;3.35;;
22711;SDS011;11523;50.390;8.072;2023-05-29T15:58:12;4.45;;;3.50;;
22711;SDS011;11523;50.390;8.072;2023-05-29T16:00:38;4.82;;;3.17;;
22711;SDS011;11523;50.390;8.072;2023-05-29T16:03:04;6.55;;;3.72;;
22711;SDS011;11523;50.390;8.072;2023-05-29T16:05:31;8.02;;;3.70;;
22711;SDS011;11523;50.390;8.072;2023-05-29T16:07:57;7.22;;;3.72;;
22711;SDS011;11523;50.390;8.072;2023-05-29T16:10:23;6.35;;;3.38;;
22711;SDS011;11523;50.390;8.072;2023-05-29T16:12:50;6.00;;;3.80;;
22711;SDS011;11523;50.390;8.072;2023-05-29T16:15:16;6.45;;;3.80;;
22711;SDS011;11523;50.390;8.072;2023-05-29T16:17:43;4.60;;;3.60;;
22711;SDS011;11523;50.390;8.072;2023-05-29T16:20:09;5.85;;;3.67;;
22711;SDS011;11523;50.390;8.072;2023-05-29T16:22:36;5.80;;;3.85;;
22711;SDS011;11523;50.390;8.072;2023-05-29T16:25:02;4.75;;;3.60;;
22711;SDS011;11523;50.390;8.072;2023-05-29T16:27:36;5.78;;;3.97;;
22711;SDS011;11523;50.390;8.072;2023-05-29T16:30:02;6.38;;;3.63;;
22711;SDS011;11523;50.390;8.072;2023-05-29T16:32:28;4.82;;;3.40;;
22711;SDS011;11523;50.390;8.072;2023-05-29T16:34:54;5.97;;;3.40;;
22711;SDS011;11523;50.390;8.072;2023-05-29T16:37:22;6.20;;;3.78;;
22711;SDS011;11523;50.390;8.072;2023-05-29T16:39:48;5.32;;;3.60;;
22711;SDS011;11523;50.390;8.072;2023-05-29T16:42:14;5.22;;;3.95;;
22711;SDS011;11523;50.390;8.072;2023-05-29T16:44:40;4.95;;;3.35;;
22711;SDS011;11523;50.390;8.072;2023-05-29T16:47:07;5.60;;;3.78;;
22711;SDS011;11523;50.390;8.072;2023-05-29T16:49:33;5.22;;;3.65;;
22711;SDS011;11523;50.390;8.072;2023-05-29T16:51:59;8.45;;;4.03;;
22711;SDS011;11523;50.390;8.072;2023-05-29T16:54:25;6.93;;;4.20;;
22711;SDS011;11523;50.390;8.072;2023-05-29T16:56:51;5.72;;;3.58;;
22711;SDS011;11523;50.390;8.072;2023-05-29T16:59:17;4.18;;;3.30;;
22711;SDS011;11523;50.390;8.072;2023-05-29T17:01:43;5.93;;;3.85;;
22711;SDS011;11523;50.390;8.072;2023-05-29T17:04:09;7.40;;;4.20;;
22711;SDS011;11523;50.390;8.072;2023-05-29T17:06:36;6.78;;;3.70;;
22711;SDS011;11523;50.390;8.072;2023-05-29T17:09:02;6.50;;;3.95;;
22711;SDS011;11523;50.390;8.072;2023-05-29T17:11:28;7.20;;;3.70;;
22711;SDS011;11523;50.390;8.072;2023-05-29T17:13:54;5.85;;;3.75;;
22711;SDS011;11523;50.390;8.072;2023-05-29T17:16:20;4.10;;;3.00;;
22711;SDS011;11523;50.390;8.072;2023-05-29T17:18:46;5.60;;;3.88;;
22711;SDS011;11523;50.390;8.072;2023-05-29T17:21:12;4.95;;;3.83;;
22711;SDS011;11523;50.390;8.072;2023-05-29T17:23:38;7.55;;;3.78;;
22711;SDS011;11523;50.390;8.072;2023-05-29T17:26:04;7.82;;;4.00;;
22711;SDS011;11523;50.390;8.072;2023-05-29T17:28:30;5.55;;;3.55;;
22711;SDS011;11523;50.390;8.072;2023-05-29T17:30:56;7.45;;;3.97;;
22711;SDS011;11523;50.390;8.072;2023-05-29T17:33:22;7.20;;;3.58;;
22711;SDS011;11523;50.390;8.072;2023-05-29T17:35:48;6.47;;;3.95;;